createdAt,value
2023-04-26T00:00:57.420Z,0.00
2023-04-26T00:01:57.479Z,0.00
2023-04-26T00:02:57.658Z,0.00
2023-04-26T00:03:57.782Z,0.00
2023-04-26T00:04:57.777Z,0.00
2023-04-26T00:05:57.675Z,0.00
2023-04-26T00:06:57.909Z,0.00
2023-04-26T00:07:57.652Z,0.00
2023-04-26T00:08:57.657Z,1.45
2023-04-26T00:09:57.687Z,17.71
2023-04-26T00:10:57.665Z,25.00
2023-04-26T00:11:57.682Z,25.00
2023-04-26T00:12:57.690Z,25.00
2023-04-26T00:13:57.686Z,25.11
2023-04-26T00:14:57.688Z,25.63
2023-04-26T00:15:57.732Z,25.00
2023-04-26T00:16:57.710Z,25.00
2023-04-26T00:17:57.777Z,25.33
2023-04-26T00:18:57.719Z,27.06
2023-04-26T00:19:57.719Z,26.80
2023-04-26T00:20:57.720Z,26.55
2023-04-26T00:21:57.729Z,25.86
2023-04-26T00:22:57.762Z,25.18
2023-04-26T00:23:57.768Z,25.00
2023-04-26T00:24:57.783Z,25.19
2023-04-26T00:25:57.842Z,26.36
2023-04-26T00:26:57.839Z,25.00
2023-04-26T00:27:57.840Z,25.60
2023-04-26T00:28:57.867Z,26.97
2023-04-26T00:29:57.859Z,26.47
2023-04-26T00:30:57.974Z,25.00
2023-04-26T00:31:57.930Z,25.27
2023-04-26T00:32:57.985Z,26.34
2023-04-26T00:33:57.925Z,25.54
2023-04-26T00:34:57.929Z,27.96
2023-04-26T00:35:57.937Z,25.00
2023-04-26T00:36:57.954Z,25.00
2023-04-26T00:37:57.954Z,25.52
2023-04-26T00:38:57.967Z,26.55
2023-04-26T00:39:57.977Z,27.38
2023-04-26T00:40:58.010Z,25.12
2023-04-26T00:41:58.217Z,26.33
2023-04-26T00:42:58.064Z,26.37
2023-04-26T00:43:58.103Z,26.03
2023-04-26T00:44:58.114Z,25.00
2023-04-26T00:45:58.203Z,25.00
2023-04-26T00:46:58.146Z,26.03
2023-04-26T00:47:58.179Z,26.26
2023-04-26T00:48:58.183Z,28.01
2023-04-26T00:49:58.223Z,26.57
2023-04-26T00:50:58.235Z,25.65
2023-04-26T00:51:58.270Z,25.51
2023-04-26T00:52:58.290Z,26.76
2023-04-26T00:53:58.311Z,27.35
2023-04-26T00:54:58.321Z,27.04
2023-04-26T00:55:58.359Z,27.19
2023-04-26T00:56:58.356Z,25.41
2023-04-26T00:57:58.417Z,25.71
2023-04-26T00:58:58.389Z,28.96
2023-04-26T00:59:58.399Z,27.11
2023-04-26T01:00:58.423Z,26.46
2023-04-26T01:01:58.434Z,27.39
2023-04-26T01:02:58.577Z,25.71
2023-04-26T01:03:58.578Z,25.30
2023-04-26T01:04:58.456Z,27.54
2023-04-26T01:05:58.463Z,25.34
2023-04-26T01:06:58.466Z,27.88
2023-04-26T01:07:58.497Z,25.00
2023-04-26T01:08:58.510Z,25.98
2023-04-26T01:09:58.517Z,27.08
2023-04-26T01:10:58.536Z,27.67
2023-04-26T01:11:58.555Z,27.05
2023-04-26T01:12:58.547Z,27.59
2023-04-26T01:13:58.577Z,26.89
2023-04-26T01:14:58.564Z,25.90
2023-04-26T01:15:58.574Z,29.13
2023-04-26T01:16:58.626Z,26.38
2023-04-26T01:17:58.614Z,27.03
2023-04-26T01:18:58.616Z,26.35
2023-04-26T01:19:58.641Z,27.34
2023-04-26T01:20:58.641Z,29.24
2023-04-26T01:21:58.644Z,26.68
2023-04-26T01:22:58.669Z,27.50
2023-04-26T01:23:58.681Z,29.84
2023-04-26T01:24:58.711Z,27.15
2023-04-26T01:25:58.742Z,27.45
2023-04-26T01:26:58.754Z,27.04
2023-04-26T01:27:58.780Z,26.64
2023-04-26T01:28:58.791Z,25.99
2023-04-26T01:29:58.986Z,27.09
2023-04-26T01:30:58.877Z,27.98
2023-04-26T01:31:58.909Z,26.78
2023-04-26T01:32:58.946Z,28.03
2023-04-26T01:33:58.947Z,28.15
2023-04-26T01:34:58.984Z,26.10
2023-04-26T01:35:59.021Z,28.17
2023-04-26T01:36:59.053Z,26.37
2023-04-26T01:37:59.071Z,25.87
2023-04-26T01:38:59.095Z,27.15
2023-04-26T01:39:59.109Z,27.26
2023-04-26T01:40:59.139Z,28.81
2023-04-26T01:41:59.164Z,27.60
2023-04-26T01:42:59.182Z,26.71
2023-04-26T01:43:59.182Z,27.95
2023-04-26T01:44:59.182Z,26.24
2023-04-26T01:45:59.349Z,26.55
2023-04-26T01:46:59.224Z,25.55
2023-04-26T01:47:59.314Z,27.26
2023-04-26T01:48:59.312Z,29.51
2023-04-26T01:49:59.329Z,27.41
2023-04-26T01:50:59.370Z,27.25
2023-04-26T01:51:59.406Z,27.08
2023-04-26T01:52:59.421Z,25.58
2023-04-26T01:53:59.453Z,25.40
2023-04-26T01:54:59.482Z,28.20
2023-04-26T01:55:59.502Z,26.16
2023-04-26T01:56:59.531Z,27.04
2023-04-26T01:57:59.534Z,28.19
2023-04-26T01:58:59.543Z,28.86
2023-04-26T01:59:59.555Z,29.10
2023-04-26T02:00:59.581Z,27.29
2023-04-26T02:01:59.664Z,28.19
2023-04-26T02:02:59.747Z,26.48
2023-04-26T02:03:59.623Z,28.52
2023-04-26T02:04:59.683Z,28.32
2023-04-26T02:05:59.629Z,27.72
2023-04-26T02:06:59.664Z,27.62
2023-04-26T02:07:59.657Z,28.67
2023-04-26T02:09:00.681Z,27.70
2023-04-26T02:09:59.701Z,27.27
2023-04-26T02:10:59.719Z,29.25
2023-04-26T02:11:59.732Z,29.50
2023-04-26T02:12:59.740Z,28.46
2023-04-26T02:13:59.758Z,27.79
2023-04-26T02:14:59.755Z,28.34
2023-04-26T02:15:59.807Z,30.35
2023-04-26T02:16:59.765Z,30.33
2023-04-26T02:17:59.894Z,27.44
2023-04-26T02:18:59.782Z,28.01
2023-04-26T02:19:59.794Z,28.87
2023-04-26T02:20:59.803Z,27.08
2023-04-26T02:21:59.842Z,26.84
2023-04-26T02:22:59.808Z,29.11
2023-04-26T02:23:59.821Z,28.77
2023-04-26T02:24:59.831Z,29.21
2023-04-26T02:25:59.841Z,28.84
2023-04-26T02:26:59.854Z,27.94
2023-04-26T02:27:59.853Z,27.47
2023-04-26T02:28:59.873Z,26.88
2023-04-26T02:29:59.877Z,30.24
2023-04-26T02:30:59.924Z,29.49
2023-04-26T02:31:59.957Z,26.93
2023-04-26T02:32:59.959Z,28.46
2023-04-26T02:33:59.946Z,28.07
2023-04-26T02:34:59.943Z,28.24
2023-04-26T02:35:59.969Z,27.51
2023-04-26T02:36:59.988Z,28.00
2023-04-26T02:38:00.024Z,28.57
2023-04-26T02:39:00.056Z,26.34
2023-04-26T02:40:00.064Z,29.24
2023-04-26T02:41:00.110Z,29.84
2023-04-26T02:42:00.119Z,28.72
2023-04-26T02:43:00.123Z,26.83
2023-04-26T02:44:00.129Z,27.42
2023-04-26T02:45:00.191Z,27.10
2023-04-26T02:46:00.161Z,26.03
2023-04-26T02:47:00.232Z,30.54
2023-04-26T02:48:00.234Z,29.41
2023-04-26T02:49:00.216Z,26.95
2023-04-26T02:50:00.387Z,29.87
2023-04-26T02:51:00.258Z,31.49
2023-04-26T02:52:00.286Z,28.40
2023-04-26T02:53:00.317Z,31.01
2023-04-26T02:54:00.314Z,29.01
2023-04-26T02:55:00.321Z,28.13
2023-04-26T02:56:00.340Z,27.59
2023-04-26T02:57:00.362Z,29.92
2023-04-26T02:58:00.385Z,29.30
2023-04-26T02:59:00.389Z,28.85
2023-04-26T03:00:00.405Z,26.77
2023-04-26T03:01:01.669Z,29.53
2023-04-26T03:02:00.486Z,28.12
2023-04-26T03:03:00.667Z,27.95
2023-04-26T03:04:00.627Z,28.53
2023-04-26T03:05:00.552Z,26.23
2023-04-26T03:06:00.594Z,28.61
2023-04-26T03:07:00.601Z,28.62
2023-04-26T03:08:00.638Z,28.54
2023-04-26T03:09:00.684Z,29.79
2023-04-26T03:10:00.686Z,27.34
2023-04-26T03:11:00.722Z,28.33
2023-04-26T03:12:00.688Z,26.67
2023-04-26T03:13:00.699Z,29.15
2023-04-26T03:14:00.709Z,27.96
2023-04-26T03:15:00.712Z,29.21
2023-04-26T03:16:00.734Z,27.97
2023-04-26T03:17:00.776Z,25.85
2023-04-26T03:18:00.867Z,27.14
2023-04-26T03:19:00.771Z,27.34
2023-04-26T03:20:02.561Z,29.66
2023-04-26T03:21:00.798Z,31.04
2023-04-26T03:22:00.847Z,32.23
2023-04-26T03:23:00.827Z,30.61
2023-04-26T03:24:00.829Z,30.63
2023-04-26T03:25:00.837Z,28.86
2023-04-26T03:26:00.878Z,28.90
2023-04-26T03:27:00.852Z,28.00
2023-04-26T03:28:00.858Z,29.08
2023-04-26T03:29:00.888Z,30.04
2023-04-26T03:30:00.874Z,27.72
2023-04-26T03:31:00.883Z,27.10
2023-04-26T03:32:00.940Z,26.69
2023-04-26T03:33:00.978Z,27.04
2023-04-26T03:34:00.897Z,25.71
2023-04-26T03:35:00.909Z,25.00
2023-04-26T03:36:00.932Z,26.58
2023-04-26T03:37:00.918Z,27.31
2023-04-26T03:38:01.000Z,27.52
2023-04-26T03:39:00.924Z,25.86
2023-04-26T03:40:00.938Z,26.97
2023-04-26T03:41:00.936Z,27.68
2023-04-26T03:42:00.954Z,26.49
2023-04-26T03:43:00.949Z,27.06
2023-04-26T03:44:00.953Z,25.17
2023-04-26T03:45:00.959Z,26.01
2023-04-26T03:46:00.977Z,25.24
2023-04-26T03:47:00.953Z,27.17
2023-04-26T03:48:01.046Z,26.72
2023-04-26T03:49:00.965Z,28.31
2023-04-26T03:50:00.971Z,27.21
2023-04-26T03:51:00.971Z,25.01
2023-04-26T03:52:01.002Z,26.29
2023-04-26T03:53:00.987Z,27.95
2023-04-26T03:54:01.015Z,27.98
2023-04-26T03:55:00.998Z,27.65
2023-04-26T03:56:00.994Z,26.17
2023-04-26T03:57:01.019Z,25.00
2023-04-26T03:58:01.098Z,27.26
2023-04-26T03:59:01.164Z,26.89
2023-04-26T04:00:01.244Z,26.91
2023-04-26T04:01:01.311Z,27.44
2023-04-26T04:02:01.412Z,26.52
2023-04-26T04:03:01.609Z,27.84
2023-04-26T04:04:01.847Z,28.61
2023-04-26T04:05:01.690Z,27.42
2023-04-26T04:06:01.684Z,28.88
2023-04-26T04:07:01.766Z,29.29
2023-04-26T04:08:02.719Z,26.60
2023-04-26T04:09:01.892Z,28.10
2023-04-26T04:10:02.060Z,28.29
2023-04-26T04:11:02.041Z,27.10
2023-04-26T04:12:02.108Z,26.77
2023-04-26T04:13:02.183Z,27.98
2023-04-26T04:14:02.246Z,28.74
2023-04-26T04:15:02.324Z,27.49
2023-04-26T04:16:02.450Z,27.92
2023-04-26T04:17:02.461Z,26.54
2023-04-26T04:18:02.572Z,29.17
2023-04-26T04:19:02.596Z,26.45
2023-04-26T04:20:02.669Z,27.87
2023-04-26T04:21:02.743Z,26.47
2023-04-26T04:22:02.815Z,27.80
2023-04-26T04:23:02.886Z,29.05
2023-04-26T04:24:02.966Z,27.23
2023-04-26T04:25:03.031Z,28.84
2023-04-26T04:26:03.154Z,25.69
2023-04-26T04:27:03.168Z,28.14
2023-04-26T04:28:03.246Z,28.52
2023-04-26T04:29:03.306Z,26.05
2023-04-26T04:30:03.381Z,26.74
2023-04-26T04:31:03.469Z,26.73
2023-04-26T04:32:03.519Z,27.64
2023-04-26T04:33:03.730Z,26.67
2023-04-26T04:34:03.660Z,27.05
2023-04-26T04:35:03.728Z,27.06
2023-04-26T04:36:03.801Z,28.45
2023-04-26T04:37:03.867Z,27.14
2023-04-26T04:38:03.940Z,26.42
2023-04-26T04:39:04.001Z,27.20
2023-04-26T04:40:04.062Z,27.52
2023-04-26T04:41:04.154Z,27.46
2023-04-26T04:42:04.232Z,26.84
2023-04-26T04:43:04.245Z,26.87
2023-04-26T04:44:04.311Z,28.15
2023-04-26T04:45:04.382Z,27.33
2023-04-26T04:46:04.500Z,30.12
2023-04-26T04:47:04.494Z,28.69
2023-04-26T04:48:04.618Z,27.66
2023-04-26T04:49:04.603Z,25.06
2023-04-26T04:50:04.682Z,25.57
2023-04-26T04:51:04.710Z,25.00
2023-04-26T04:52:04.734Z,25.00
2023-04-26T04:53:04.746Z,25.00
2023-04-26T04:54:04.753Z,36.12
2023-04-26T04:55:04.828Z,45.26
2023-04-26T04:56:04.768Z,38.39
2023-04-26T04:57:04.768Z,43.36
2023-04-26T04:58:04.796Z,49.10
2023-04-26T04:59:04.781Z,51.63
2023-04-26T05:00:04.797Z,54.37
2023-04-26T05:01:04.778Z,55.33
2023-04-26T05:02:04.856Z,54.54
2023-04-26T05:03:05.004Z,52.84
2023-04-26T05:04:04.953Z,53.11
2023-04-26T05:05:05.036Z,52.32
2023-04-26T05:06:04.885Z,52.96
2023-04-26T05:07:04.929Z,52.28
2023-04-26T05:08:04.943Z,52.39
2023-04-26T05:09:04.978Z,52.72
2023-04-26T05:10:05.012Z,51.63
2023-04-26T05:11:05.070Z,48.61
2023-04-26T05:12:05.092Z,38.83
2023-04-26T05:13:05.107Z,37.22
2023-04-26T05:14:05.219Z,33.85
2023-04-26T05:15:05.182Z,28.45
2023-04-26T05:16:05.226Z,25.19
2023-04-26T05:17:05.250Z,25.00
2023-04-26T05:18:05.269Z,25.00
2023-04-26T05:19:06.632Z,25.91
2023-04-26T05:20:05.272Z,26.04
2023-04-26T05:21:05.283Z,19.31
2023-04-26T05:22:05.261Z,21.40
2023-04-26T05:23:05.295Z,24.10
2023-04-26T05:24:05.267Z,26.77
2023-04-26T05:25:05.331Z,33.71
2023-04-26T05:26:05.294Z,33.32
2023-04-26T05:27:05.772Z,34.89
2023-04-26T05:28:05.249Z,34.54
2023-04-26T05:29:05.277Z,32.95
2023-04-26T05:30:05.282Z,31.86
2023-04-26T05:31:05.270Z,33.55
2023-04-26T05:32:05.286Z,37.60
2023-04-26T05:33:05.351Z,45.78
2023-04-26T05:34:05.252Z,56.65
2023-04-26T05:35:05.276Z,62.33
2023-04-26T05:36:05.264Z,63.12
2023-04-26T05:37:05.252Z,63.45
2023-04-26T05:38:05.253Z,63.98
2023-04-26T05:39:05.248Z,63.51
2023-04-26T05:40:05.263Z,64.12
2023-04-26T05:41:05.223Z,63.63
2023-04-26T05:42:05.285Z,66.43
2023-04-26T05:43:05.336Z,62.26
2023-04-26T05:44:05.380Z,61.03
2023-04-26T05:45:05.433Z,58.40
2023-04-26T05:46:05.539Z,54.46
2023-04-26T05:47:05.484Z,54.01
2023-04-26T05:48:05.587Z,49.10
2023-04-26T05:49:05.516Z,48.85
2023-04-26T05:50:05.765Z,45.13
2023-04-26T05:51:05.553Z,43.09
2023-04-26T05:52:05.537Z,38.66
2023-04-26T05:53:05.565Z,38.97
2023-04-26T05:54:05.767Z,39.42
2023-04-26T05:55:06.266Z,38.79
2023-04-26T05:56:05.544Z,43.51
2023-04-26T05:57:05.583Z,48.35
2023-04-26T05:58:05.629Z,58.79
2023-04-26T05:59:05.793Z,66.92
2023-04-26T06:00:08.831Z,74.49
2023-04-26T06:01:05.622Z,75.14
2023-04-26T06:02:05.837Z,77.71
2023-04-26T06:03:05.773Z,84.37
2023-04-26T06:04:05.852Z,94.32
2023-04-26T06:05:05.988Z,114.38
2023-04-26T06:06:05.545Z,126.70
2023-04-26T06:07:05.564Z,131.33
2023-04-26T06:08:05.789Z,139.32
2023-04-26T06:09:05.513Z,145.98
2023-04-26T06:10:05.770Z,151.18
2023-04-26T06:11:05.493Z,157.08
2023-04-26T06:12:05.488Z,162.33
2023-04-26T06:13:05.469Z,168.39
2023-04-26T06:14:05.458Z,167.08
2023-04-26T06:15:05.770Z,169.09
2023-04-26T06:16:05.431Z,166.96
2023-04-26T06:17:05.488Z,172.86
2023-04-26T06:18:05.497Z,168.51
2023-04-26T06:19:05.419Z,169.95
2023-04-26T06:20:05.781Z,168.81
2023-04-26T06:21:05.460Z,168.12
2023-04-26T06:22:05.489Z,169.82
2023-04-26T06:23:05.516Z,164.39
2023-04-26T06:24:05.932Z,162.96
2023-04-26T06:25:05.575Z,165.66
2023-04-26T06:26:05.799Z,164.40
2023-04-26T06:27:05.554Z,163.18
2023-04-26T06:28:05.563Z,165.13
2023-04-26T06:29:05.561Z,163.27
2023-04-26T06:30:05.567Z,162.95
2023-04-26T06:31:05.826Z,160.20
2023-04-26T06:32:05.574Z,162.46
2023-04-26T06:33:05.614Z,160.92
2023-04-26T06:34:05.666Z,163.08
2023-04-26T06:35:05.815Z,160.26
2023-04-26T06:36:05.615Z,165.64
2023-04-26T06:37:05.789Z,161.84
2023-04-26T06:38:05.850Z,160.23
2023-04-26T06:39:05.600Z,160.28
2023-04-26T06:40:05.599Z,157.64
2023-04-26T06:41:05.794Z,156.51
2023-04-26T06:42:05.695Z,159.37
2023-04-26T06:43:05.585Z,161.47
2023-04-26T06:44:05.575Z,159.32
2023-04-26T06:45:05.802Z,166.19
2023-04-26T06:46:05.624Z,172.46
2023-04-26T06:47:05.581Z,169.58
2023-04-26T06:48:05.985Z,173.14
2023-04-26T06:49:05.581Z,175.45
2023-04-26T06:50:05.947Z,158.14
2023-04-26T06:51:08.823Z,147.15
2023-04-26T06:52:05.561Z,141.39
2023-04-26T06:53:06.137Z,119.22
2023-04-26T06:54:05.554Z,113.01
2023-04-26T06:55:05.801Z,108.20
2023-04-26T06:56:08.725Z,103.16
2023-04-26T06:57:05.510Z,101.55
2023-04-26T06:58:05.495Z,87.25
2023-04-26T06:59:05.483Z,83.65
2023-04-26T07:00:05.829Z,76.94
2023-04-26T07:01:05.476Z,63.01
2023-04-26T07:02:05.570Z,61.82
2023-04-26T07:03:05.696Z,56.05
2023-04-26T07:04:05.537Z,50.24
2023-04-26T07:05:05.582Z,46.72
2023-04-26T07:06:05.506Z,34.14
2023-04-26T07:07:05.410Z,29.22
2023-04-26T07:08:06.265Z,25.00
2023-04-26T07:09:05.376Z,29.37
2023-04-26T07:10:05.757Z,30.86
2023-04-26T07:11:05.444Z,24.68
2023-04-26T07:12:05.339Z,30.11
2023-04-26T07:13:07.962Z,37.01
2023-04-26T07:14:05.315Z,37.14
2023-04-26T07:15:05.302Z,32.48
2023-04-26T07:16:05.329Z,38.38
2023-04-26T07:17:05.283Z,35.98
2023-04-26T07:18:05.336Z,22.51
2023-04-26T07:19:05.286Z,29.06
2023-04-26T07:20:05.316Z,27.18
2023-04-26T07:21:05.245Z,25.97
2023-04-26T07:22:05.290Z,27.15
2023-04-26T07:23:05.295Z,31.70
2023-04-26T07:24:05.219Z,24.68
2023-04-26T07:25:05.434Z,27.40
2023-04-26T07:26:05.197Z,25.10
2023-04-26T07:27:05.182Z,26.24
2023-04-26T07:28:05.315Z,30.14
2023-04-26T07:29:05.167Z,30.32
2023-04-26T07:30:05.374Z,33.42
2023-04-26T07:31:07.848Z,36.93
2023-04-26T07:32:05.151Z,37.68
2023-04-26T07:33:05.449Z,43.20
2023-04-26T07:34:05.104Z,55.12
2023-04-26T07:35:05.093Z,61.69
2023-04-26T07:36:05.084Z,86.35
2023-04-26T07:37:05.086Z,96.40
2023-04-26T07:38:05.395Z,85.70
2023-04-26T07:39:05.065Z,90.65
2023-04-26T07:40:05.093Z,93.67
2023-04-26T07:41:05.342Z,94.19
2023-04-26T07:42:05.441Z,88.90
2023-04-26T07:43:05.030Z,90.47
2023-04-26T07:44:05.016Z,78.18
2023-04-26T07:45:05.410Z,87.35
2023-04-26T07:46:05.056Z,85.96
2023-04-26T07:47:04.984Z,97.75
2023-04-26T07:48:05.043Z,93.61
2023-04-26T07:49:04.959Z,94.18
2023-04-26T07:50:05.338Z,96.75
2023-04-26T07:51:05.329Z,84.94
2023-04-26T07:52:04.940Z,93.32
2023-04-26T07:53:04.946Z,90.47
2023-04-26T07:54:04.999Z,87.89
2023-04-26T07:55:05.314Z,106.02
2023-04-26T07:56:05.322Z,98.25
2023-04-26T07:57:04.892Z,100.29
2023-04-26T07:58:04.912Z,92.11
2023-04-26T07:59:04.908Z,80.17
2023-04-26T08:00:05.322Z,81.08
2023-04-26T08:01:05.315Z,73.73
2023-04-26T08:02:05.341Z,66.31
2023-04-26T08:03:04.994Z,59.26
2023-04-26T08:04:05.114Z,52.34
2023-04-26T08:05:05.681Z,49.13
2023-04-26T08:06:05.040Z,51.94
2023-04-26T08:07:04.789Z,62.00
2023-04-26T08:08:04.809Z,64.15
2023-04-26T08:09:04.757Z,63.17
2023-04-26T08:10:04.843Z,50.00
2023-04-26T08:11:04.894Z,61.24
2023-04-26T08:12:04.908Z,60.86
2023-04-26T08:13:04.697Z,58.55
2023-04-26T08:14:04.673Z,56.03
2023-04-26T08:15:04.826Z,56.73
2023-04-26T08:16:04.896Z,54.81
2023-04-26T08:17:04.691Z,51.29
2023-04-26T08:18:04.681Z,49.56
2023-04-26T08:19:04.592Z,47.07
2023-04-26T08:20:04.620Z,42.30
2023-04-26T08:21:04.830Z,36.34
2023-04-26T08:22:05.174Z,42.95
2023-04-26T08:23:04.594Z,40.31
2023-04-26T08:24:04.586Z,41.60
2023-04-26T08:25:04.620Z,41.30
2023-04-26T08:26:05.103Z,32.29
2023-04-26T08:27:04.654Z,40.03
2023-04-26T08:28:04.681Z,38.73
2023-04-26T08:29:04.694Z,35.78
2023-04-26T08:30:04.695Z,31.79
2023-04-26T08:31:04.916Z,29.27
2023-04-26T08:32:05.200Z,30.36
2023-04-26T08:33:04.832Z,27.41
2023-04-26T08:34:04.828Z,28.25
2023-04-26T08:35:04.873Z,31.69
2023-04-26T08:36:05.325Z,30.21
2023-04-26T08:37:04.965Z,25.00
2023-04-26T08:38:04.911Z,29.95
2023-04-26T08:39:04.977Z,33.24
2023-04-26T08:40:04.965Z,27.36
2023-04-26T08:41:05.332Z,25.48
2023-04-26T08:42:05.152Z,40.57
2023-04-26T08:43:04.999Z,49.46
2023-04-26T08:44:05.408Z,49.47
2023-04-26T08:45:05.073Z,64.05
2023-04-26T08:46:05.714Z,61.90
2023-04-26T08:47:05.104Z,69.75
2023-04-26T08:48:05.157Z,67.18
2023-04-26T08:49:12.567Z,86.92
2023-04-26T08:50:05.148Z,87.58
2023-04-26T08:51:05.125Z,92.34
2023-04-26T08:52:05.103Z,100.98
2023-04-26T08:53:06.111Z,118.92
2023-04-26T08:54:05.128Z,143.68
2023-04-26T08:55:05.065Z,147.83
2023-04-26T08:56:05.355Z,148.08
2023-04-26T08:57:05.025Z,137.30
2023-04-26T08:58:05.028Z,128.27
2023-04-26T08:59:04.999Z,140.38
2023-04-26T09:00:04.969Z,128.94
2023-04-26T09:01:05.334Z,128.78
2023-04-26T09:02:05.089Z,124.96
2023-04-26T09:03:05.069Z,121.07
2023-04-26T09:04:05.085Z,124.71
2023-04-26T09:05:05.092Z,130.88
2023-04-26T09:06:04.953Z,140.58
2023-04-26T09:07:04.938Z,138.68
2023-04-26T09:08:04.968Z,136.58
2023-04-26T09:09:05.031Z,135.99
2023-04-26T09:10:05.023Z,134.71
2023-04-26T09:11:06.388Z,129.63
2023-04-26T09:12:05.063Z,132.32
2023-04-26T09:13:05.074Z,132.18
2023-04-26T09:14:05.181Z,135.53
2023-04-26T09:15:05.107Z,135.86
2023-04-26T09:16:05.531Z,136.60
2023-04-26T09:17:05.147Z,134.26
2023-04-26T09:18:05.201Z,135.03
2023-04-26T09:19:05.168Z,138.15
2023-04-26T09:20:07.716Z,125.82
2023-04-26T09:21:05.380Z,133.02
2023-04-26T09:22:05.168Z,133.81
2023-04-26T09:23:05.144Z,127.49
2023-04-26T09:24:05.354Z,125.00
2023-04-26T09:25:05.119Z,119.63
2023-04-26T09:26:05.128Z,122.62
2023-04-26T09:27:05.094Z,120.73
2023-04-26T09:28:05.069Z,134.69
2023-04-26T09:29:05.351Z,130.58
2023-04-26T09:30:05.158Z,137.48
2023-04-26T09:31:05.412Z,146.44
2023-04-26T09:32:04.995Z,147.95
2023-04-26T09:33:05.140Z,141.57
2023-04-26T09:34:04.962Z,130.83
2023-04-26T09:35:04.952Z,124.41
2023-04-26T09:36:05.374Z,112.02
2023-04-26T09:37:04.934Z,126.64
2023-04-26T09:38:10.508Z,125.78
2023-04-26T09:39:04.890Z,125.23
2023-04-26T09:40:04.896Z,124.66
2023-04-26T09:41:05.350Z,113.16
2023-04-26T09:42:04.924Z,108.82
2023-04-26T09:43:04.861Z,111.48
2023-04-26T09:44:04.861Z,129.63
2023-04-26T09:45:04.858Z,104.67
2023-04-26T09:46:05.091Z,100.40
2023-04-26T09:47:04.890Z,90.54
2023-04-26T09:48:04.810Z,82.98
2023-04-26T09:49:04.761Z,89.32
2023-04-26T09:50:04.888Z,97.89
2023-04-26T09:51:04.853Z,101.15
2023-04-26T09:52:04.742Z,82.12
2023-04-26T09:53:04.759Z,82.38
2023-04-26T09:54:04.740Z,88.06
2023-04-26T09:55:04.736Z,103.46
2023-04-26T09:56:04.858Z,106.11
2023-04-26T09:57:04.713Z,109.29
2023-04-26T09:58:04.702Z,118.88
2023-04-26T09:59:04.697Z,96.07
2023-04-26T10:00:04.859Z,81.20
2023-04-26T10:01:04.954Z,70.81
2023-04-26T10:02:04.696Z,72.37
2023-04-26T10:03:04.725Z,61.50
2023-04-26T10:04:04.860Z,66.42
2023-04-26T10:05:04.761Z,57.93
2023-04-26T10:06:04.887Z,50.99
2023-04-26T10:07:04.624Z,63.58
2023-04-26T10:08:04.638Z,96.09
2023-04-26T10:09:04.611Z,104.78
2023-04-26T10:10:04.613Z,112.55
2023-04-26T10:11:04.885Z,108.59
2023-04-26T10:12:04.583Z,108.17
2023-04-26T10:13:04.601Z,102.12
2023-04-26T10:14:04.637Z,104.23
2023-04-26T10:15:04.690Z,102.42
2023-04-26T10:16:04.886Z,75.49
2023-04-26T10:17:04.820Z,90.59
2023-04-26T10:18:05.027Z,92.44
2023-04-26T10:19:04.771Z,78.20
2023-04-26T10:20:04.840Z,91.31
2023-04-26T10:21:04.836Z,95.93
2023-04-26T10:22:04.869Z,101.50
2023-04-26T10:23:05.369Z,99.35
2023-04-26T10:24:04.932Z,76.57
2023-04-26T10:25:04.938Z,57.81
2023-04-26T10:26:05.398Z,74.39
2023-04-26T10:27:05.066Z,76.01
2023-04-26T10:28:04.995Z,55.96
2023-04-26T10:29:05.149Z,59.07
2023-04-26T10:30:05.051Z,63.29
2023-04-26T10:31:05.741Z,53.85
2023-04-26T10:32:05.618Z,48.21
2023-04-26T10:33:05.422Z,29.48
2023-04-26T10:34:05.596Z,18.40
2023-04-26T10:35:05.348Z,0.00
2023-04-26T10:36:05.778Z,0.00
2023-04-26T10:37:05.518Z,0.00
2023-04-26T10:38:05.567Z,18.74
2023-04-26T10:39:05.581Z,25.00
2023-04-26T10:40:05.633Z,25.98
2023-04-26T10:41:05.183Z,29.86
2023-04-26T10:42:05.512Z,33.22
2023-04-26T10:43:05.762Z,38.94
2023-04-26T10:44:05.429Z,18.17
2023-04-26T10:45:05.622Z,42.06
2023-04-26T10:46:05.599Z,33.96
2023-04-26T10:47:05.652Z,27.47
2023-04-26T10:48:05.563Z,26.92
2023-04-26T10:49:05.662Z,45.17
2023-04-26T10:50:05.799Z,56.10
2023-04-26T10:51:05.382Z,56.94
2023-04-26T10:52:05.163Z,56.50
2023-04-26T10:53:05.460Z,79.53
2023-04-26T10:54:05.193Z,118.74
2023-04-26T10:55:05.172Z,147.59
2023-04-26T10:56:05.402Z,159.41
2023-04-26T10:57:05.212Z,172.79
2023-04-26T10:58:05.379Z,176.15
2023-04-26T10:59:13.614Z,166.77
2023-04-26T11:00:05.251Z,167.66
2023-04-26T11:01:05.286Z,173.22
2023-04-26T11:02:05.209Z,184.12
2023-04-26T11:03:05.463Z,199.37
2023-04-26T11:04:05.535Z,226.50
2023-04-26T11:05:05.207Z,232.59
2023-04-26T11:06:05.456Z,238.07
2023-04-26T11:07:05.137Z,228.99
2023-04-26T11:08:05.107Z,230.69
2023-04-26T11:09:05.392Z,228.46
2023-04-26T11:10:05.078Z,230.10
2023-04-26T11:11:05.391Z,200.61
2023-04-26T11:12:05.084Z,207.12
2023-04-26T11:13:05.032Z,222.32
2023-04-26T11:14:05.052Z,228.38
2023-04-26T11:15:05.045Z,234.50
2023-04-26T11:16:05.544Z,238.77
2023-04-26T11:17:05.432Z,222.61
2023-04-26T11:18:05.073Z,233.24
2023-04-26T11:19:04.944Z,230.91
2023-04-26T11:20:04.934Z,216.62
2023-04-26T11:21:04.982Z,219.85
2023-04-26T11:22:04.980Z,240.98
2023-04-26T11:23:04.894Z,235.50
2023-04-26T11:24:04.888Z,228.42
2023-04-26T11:25:04.882Z,226.80
2023-04-26T11:26:04.914Z,232.55
2023-04-26T11:27:04.848Z,235.77
2023-04-26T11:28:04.830Z,236.37
2023-04-26T11:29:04.822Z,244.02
2023-04-26T11:30:04.812Z,240.90
2023-04-26T11:31:04.955Z,241.59
2023-04-26T11:32:04.778Z,247.78
2023-04-26T11:33:04.811Z,244.51
2023-04-26T11:34:04.747Z,247.12
2023-04-26T11:35:04.727Z,249.81
2023-04-26T11:36:04.916Z,242.94
2023-04-26T11:37:04.846Z,244.25
2023-04-26T11:38:04.753Z,241.24
2023-04-26T11:39:04.717Z,238.07
2023-04-26T11:40:04.755Z,245.68
2023-04-26T11:41:04.768Z,247.46
2023-04-26T11:42:04.782Z,245.69
2023-04-26T11:43:04.780Z,239.12
2023-04-26T11:44:04.798Z,242.98
2023-04-26T11:45:05.355Z,242.99
2023-04-26T11:46:04.843Z,235.94
2023-04-26T11:47:04.788Z,239.76
2023-04-26T11:48:04.804Z,235.10
2023-04-26T11:49:04.756Z,228.99
2023-04-26T11:50:04.747Z,227.51
2023-04-26T11:51:04.917Z,229.70
2023-04-26T11:52:04.894Z,232.62
2023-04-26T11:53:04.730Z,214.50
2023-04-26T11:54:04.727Z,220.00
2023-04-26T11:55:04.913Z,221.54
2023-04-26T11:56:04.676Z,219.44
2023-04-26T11:57:04.664Z,221.38
2023-04-26T11:58:04.685Z,224.54
2023-04-26T11:59:04.656Z,228.88
2023-04-26T12:00:05.413Z,223.67
2023-04-26T12:01:04.672Z,219.64
2023-04-26T12:02:04.983Z,232.59
2023-04-26T12:03:04.854Z,232.75
2023-04-26T12:04:05.032Z,231.20
2023-04-26T12:05:04.773Z,234.10
2023-04-26T12:06:04.706Z,227.38
2023-04-26T12:07:04.714Z,225.79
2023-04-26T12:08:04.713Z,213.50
2023-04-26T12:09:04.686Z,214.28
2023-04-26T12:10:04.706Z,208.49
2023-04-26T12:11:04.662Z,208.02
2023-04-26T12:12:04.653Z,213.62
2023-04-26T12:13:04.657Z,227.41
2023-04-26T12:14:04.645Z,238.71
2023-04-26T12:15:04.628Z,242.57
2023-04-26T12:16:07.349Z,248.42
2023-04-26T12:17:04.697Z,248.89
2023-04-26T12:18:04.734Z,251.01
2023-04-26T12:19:04.588Z,254.60
2023-04-26T12:20:04.562Z,262.16
2023-04-26T12:21:04.545Z,271.61
2023-04-26T12:22:04.523Z,248.12
2023-04-26T12:23:04.514Z,247.35
2023-04-26T12:24:04.478Z,245.50
2023-04-26T12:25:04.469Z,248.22
2023-04-26T12:26:04.564Z,246.61
2023-04-26T12:27:04.451Z,247.15
2023-04-26T12:28:04.412Z,245.17
2023-04-26T12:29:04.383Z,243.99
2023-04-26T12:30:04.365Z,244.28
2023-04-26T12:31:04.452Z,241.83
2023-04-26T12:32:04.646Z,245.48
2023-04-26T12:33:15.666Z,232.71
2023-04-26T12:34:04.309Z,198.06
2023-04-26T12:35:04.294Z,148.82
2023-04-26T12:36:04.285Z,121.37
2023-04-26T12:37:04.262Z,80.44
2023-04-26T12:38:04.254Z,69.47
2023-04-26T12:39:04.237Z,60.49
2023-04-26T12:40:04.226Z,47.52
2023-04-26T12:41:04.223Z,27.95
2023-04-26T12:42:04.229Z,25.00
2023-04-26T12:43:04.208Z,23.63
2023-04-26T12:44:04.186Z,24.77
2023-04-26T12:45:04.216Z,25.68
2023-04-26T12:46:04.235Z,25.00